Time;durP1;ratioP1;P1;durP2;ratioP2;P2;SDS_P1;SDS_P2;PMS_P1;PMS_P2;Temp;Humidity;BMP_temperature;BMP_pressure;BME280_temperature;BME280_humidity;BME280_pressure;Samples;Min_cycle;Max_cycle;Signal;HPM_P1;HPM_P2
2022/12/22 03:26:19;;;;;;;12.88;6.65;;;;;;;;;;4982182;28;20030;-83
2022/12/22 03:28:44;;;;;;;11.90;6.00;;;;;;;;;;4980204;28;20035;-83
2022/12/22 03:31:10;;;;;;;13.05;6.90;;;;;;;;;;4981094;28;20026;-83
2022/12/22 03:33:35;;;;;;;9.88;5.72;;;;;;;;;;4979398;28;20023;-83
2022/12/22 03:36:00;;;;;;;10.75;5.60;;;;;;;;;;4980321;28;20117;-84
2022/12/22 03:38:27;;;;;;;8.95;5.03;;;;;;;;;;4982838;28;20031;-83
2022/12/22 03:40:52;;;;;;;10.05;5.43;;;;;;;;;;4983109;28;20034;-83
2022/12/22 03:46:35;;;;;;;11.07;6.30;;;;;;;;;;4982596;28;20555;-82
2022/12/22 03:49:10;;;;;;;10.98;5.38;;;;;;;;;;4979753;28;20027;-84
2022/12/22 03:51:40;;;;;;;14.05;6.57;;;;;;;;;;4982540;28;20018;-83
2022/12/22 03:54:05;;;;;;;12.18;6.53;;;;;;;;;;4981726;28;20027;-82
2022/12/22 03:56:31;;;;;;;15.07;6.47;;;;;;;;;;4981026;28;20026;-82
2022/12/22 03:58:56;;;;;;;13.93;7.32;;;;;;;;;;4982486;28;20031;-83
2022/12/22 04:01:22;;;;;;;9.70;4.88;;;;;;;;;;4981971;28;20027;-83
2022/12/22 04:03:48;;;;;;;13.05;6.13;;;;;;;;;;4980372;28;20062;-82
2022/12/22 04:06:14;;;;;;;10.30;5.43;;;;;;;;;;4981707;28;20477;-82
2022/12/22 04:08:39;;;;;;;12.75;6.35;;;;;;;;;;4983830;28;20026;-83
2022/12/22 04:13:49;;;;;;;11.43;5.97;;;;;;;;;;4984621;28;20030;-81
2022/12/22 04:16:14;;;;;;;12.85;6.47;;;;;;;;;;4984042;28;20038;-82
2022/12/22 04:18:39;;;;;;;11.88;6.55;;;;;;;;;;4986101;28;20392;-83
2022/12/22 04:21:04;;;;;;;12.88;6.38;;;;;;;;;;4984339;28;20409;-84
2022/12/22 04:23:29;;;;;;;11.75;6.07;;;;;;;;;;4983723;28;20027;-83
2022/12/22 04:25:55;;;;;;;11.98;5.95;;;;;;;;;;4986826;28;20065;-84
2022/12/22 04:28:20;;;;;;;10.40;5.67;;;;;;;;;;4985542;28;20400;-83
2022/12/22 04:30:50;;;;;;;12.55;5.97;;;;;;;;;;4983961;28;20611;-83
2022/12/22 04:33:16;;;;;;;12.57;6.93;;;;;;;;;;4985660;28;20026;-83
2022/12/22 04:35:41;;;;;;;8.38;5.03;;;;;;;;;;4984711;28;20022;-82
2022/12/22 04:38:06;;;;;;;11.18;5.95;;;;;;;;;;4984326;28;20061;-83
2022/12/22 04:40:32;;;;;;;12.50;6.23;;;;;;;;;;4984691;28;20023;-83
2022/12/22 04:42:57;;;;;;;13.00;6.85;;;;;;;;;;4985348;28;20403;-82
2022/12/22 04:45:22;;;;;;;12.13;6.10;;;;;;;;;;4985641;28;20026;-83
2022/12/22 04:47:47;;;;;;;13.38;6.93;;;;;;;;;;4984170;28;20266;-83
2022/12/22 04:50:13;;;;;;;12.23;6.13;;;;;;;;;;4984988;28;20031;-83
2022/12/22 04:52:38;;;;;;;11.35;5.47;;;;;;;;;;4984511;28;20307;-83
2022/12/22 04:55:05;;;;;;;12.70;6.10;;;;;;;;;;4984078;28;20031;-83
2022/12/22 04:57:30;;;;;;;12.27;6.78;;;;;;;;;;4984438;28;20031;-82
2022/12/22 04:59:55;;;;;;;13.00;6.75;;;;;;;;;;4982783;28;20058;-83
2022/12/22 05:02:21;;;;;;;15.20;7.82;;;;;;;;;;4982851;28;20626;-83
2022/12/22 05:04:46;;;;;;;12.45;6.07;;;;;;;;;;4984059;28;20026;-85
2022/12/22 05:07:11;;;;;;;11.48;5.95;;;;;;;;;;4983400;28;20034;-82
2022/12/22 05:09:36;;;;;;;14.52;7.60;;;;;;;;;;4982616;28;20026;-81
2022/12/22 05:12:53;;;;;;;11.57;6.15;;;;;;;;;;4984267;28;20031;-82
2022/12/22 05:14:47;;;;;;;11.98;6.50;;;;;;;;;;4983463;28;20035;-82
2022/12/22 05:17:12;;;;;;;10.93;5.88;;;;;;;;;;4983446;28;20049;-83
2022/12/22 05:19:37;;;;;;;11.77;6.38;;;;;;;;;;4984461;28;20054;-83
2022/12/22 05:22:03;;;;;;;14.00;6.45;;;;;;;;;;4983395;28;20034;-83
2022/12/22 05:24:28;;;;;;;13.27;6.95;;;;;;;;;;4984512;28;20026;-83
2022/12/22 05:26:53;;;;;;;12.23;6.63;;;;;;;;;;4982639;28;20034;-83
2022/12/22 05:29:18;;;;;;;12.75;6.63;;;;;;;;;;4984648;28;20265;-83
2022/12/22 05:31:43;;;;;;;12.63;6.82;;;;;;;;;;4982873;28;20015;-83
2022/12/22 05:34:09;;;;;;;7.07;2.67;;;;;;;;;;4983549;28;20445;-83
2022/12/22 05:36:34;;;;;;;11.40;5.93;;;;;;;;;;4984483;28;20439;-83
2022/12/22 05:38:59;;;;;;;11.48;6.15;;;;;;;;;;4984835;28;20436;-82
2022/12/22 05:41:24;;;;;;;9.77;5.73;;;;;;;;;;4981809;28;20023;-82
2022/12/22 05:43:50;;;;;;;8.90;5.37;;;;;;;;;;4980751;28;20280;-82
2022/12/22 05:46:15;;;;;;;11.50;5.43;;;;;;;;;;4982251;28;20261;-83
2022/12/22 05:48:40;;;;;;;11.38;5.82;;;;;;;;;;4985022;28;20262;-84
2022/12/22 05:51:07;;;;;;;11.18;5.63;;;;;;;;;;4982393;28;20022;-84
2022/12/22 05:53:32;;;;;;;8.50;5.20;;;;;;;;;;4981245;28;20027;-84
2022/12/22 05:55:58;;;;;;;12.65;5.43;;;;;;;;;;4982546;28;20086;-82
2022/12/22 05:58:23;;;;;;;13.05;5.80;;;;;;;;;;4982609;28;20061;-82
2022/12/22 06:00:48;;;;;;;11.50;5.63;;;;;;;;;;4983997;28;20138;-83
2022/12/22 06:03:13;;;;;;;10.27;5.65;;;;;;;;;;4982769;28;20348;-84
2022/12/22 06:05:39;;;;;;;10.73;5.30;;;;;;;;;;4981720;28;20046;-83
2022/12/22 06:08:04;;;;;;;12.57;5.88;;;;;;;;;;4984126;28;20026;-83
2022/12/22 06:10:29;;;;;;;11.98;5.75;;;;;;;;;;4982175;28;20035;-83
2022/12/22 06:12:55;;;;;;;11.57;6.53;;;;;;;;;;4982947;28;20034;-83
2022/12/22 06:15:20;;;;;;;15.20;7.28;;;;;;;;;;4980041;28;20261;-82
2022/12/22 06:17:45;;;;;;;15.23;7.07;;;;;;;;;;4980300;28;20026;-82
2022/12/22 06:20:12;;;;;;;15.10;7.15;;;;;;;;;;4981285;28;20027;-83
2022/12/22 06:22:37;;;;;;;9.15;4.60;;;;;;;;;;4981165;28;20037;-83
2022/12/22 06:25:03;;;;;;;12.90;5.95;;;;;;;;;;4982155;28;20109;-82
2022/12/22 06:27:28;;;;;;;12.20;5.88;;;;;;;;;;4983507;28;20034;-82
2022/12/22 06:29:53;;;;;;;10.60;5.78;;;;;;;;;;4981870;28;20369;-83
2022/12/22 06:32:18;;;;;;;10.65;5.18;;;;;;;;;;4982928;28;20046;-81
2022/12/22 06:34:44;;;;;;;13.05;6.32;;;;;;;;;;4982204;28;20035;-83
2022/12/22 06:37:09;;;;;;;11.93;5.80;;;;;;;;;;4981175;28;20031;-84
2022/12/22 06:39:34;;;;;;;12.00;6.38;;;;;;;;;;4981106;28;20033;-83
2022/12/22 06:44:43;;;;;;;10.65;5.88;;;;;;;;;;4981774;28;20073;-83
2022/12/22 06:47:08;;;;;;;16.53;6.17;;;;;;;;;;4982589;28;20031;-84
2022/12/22 06:49:34;;;;;;;11.32;6.43;;;;;;;;;;4983170;28;20276;-82
2022/12/22 06:51:59;;;;;;;12.02;5.65;;;;;;;;;;4980490;28;20492;-82
2022/12/22 06:54:24;;;;;;;11.15;5.63;;;;;;;;;;4981199;28;20527;-82
2022/12/22 06:56:49;;;;;;;14.45;5.93;;;;;;;;;;4982429;28;20054;-83
2022/12/22 06:59:14;;;;;;;11.07;5.45;;;;;;;;;;4982357;28;20026;-83
2022/12/22 07:01:41;;;;;;;9.88;5.70;;;;;;;;;;4981773;28;20029;-83
2022/12/22 07:04:07;;;;;;;11.27;6.07;;;;;;;;;;4981293;28;20030;-82
2022/12/22 07:06:32;;;;;;;11.00;5.63;;;;;;;;;;4981516;28;20035;-82
2022/12/22 07:08:57;;;;;;;10.23;5.27;;;;;;;;;;4981404;28;20384;-82
2022/12/22 07:11:22;;;;;;;11.00;6.33;;;;;;;;;;4982827;28;20694;-82
2022/12/22 07:13:47;;;;;;;9.35;5.22;;;;;;;;;;4982243;28;20769;-83
2022/12/22 07:16:13;;;;;;;10.27;5.80;;;;;;;;;;4980409;28;20026;-84
2022/12/22 07:18:40;;;;;;;10.13;5.72;;;;;;;;;;4979864;28;20034;-82
2022/12/22 07:21:08;;;;;;;10.10;5.65;;;;;;;;;;4981379;28;20049;-82
2022/12/22 07:23:34;;;;;;;9.98;5.38;;;;;;;;;;4979743;28;20022;-83
2022/12/22 07:25:59;;;;;;;8.43;5.05;;;;;;;;;;4981812;28;20089;-82
2022/12/22 07:28:25;;;;;;;9.27;5.45;;;;;;;;;;4980875;28;20026;-83
2022/12/22 07:30:51;;;;;;;10.80;5.22;;;;;;;;;;4980703;28;20068;-83
2022/12/22 07:33:17;;;;;;;10.13;5.13;;;;;;;;;;4979878;28;20619;-84
2022/12/22 07:35:42;;;;;;;8.60;5.22;;;;;;;;;;4981020;28;20034;-83
2022/12/22 07:38:07;;;;;;;7.70;4.00;;;;;;;;;;4980954;28;20073;-85
2022/12/22 07:40:33;;;;;;;7.97;4.88;;;;;;;;;;4981430;28;20499;-85
2022/12/22 07:42:59;;;;;;;8.48;4.07;;;;;;;;;;4980359;28;20030;-84
2022/12/22 07:45:25;;;;;;;8.43;5.15;;;;;;;;;;4983358;28;20544;-82
2022/12/22 07:47:50;;;;;;;8.73;4.53;;;;;;;;;;4979649;28;20023;-83
2022/12/22 07:50:26;;;;;;;10.30;4.47;;;;;;;;;;4980307;28;20511;-83
2022/12/22 07:53:03;;;;;;;8.27;4.72;;;;;;;;;;4981538;28;20019;-82
2022/12/22 07:55:30;;;;;;;9.25;5.20;;;;;;;;;;4981906;28;20030;-82
2022/12/22 07:57:56;;;;;;;9.13;5.15;;;;;;;;;;4980597;28;20031;-82
2022/12/22 08:00:22;;;;;;;10.18;5.57;;;;;;;;;;4980365;28;20555;-83
2022/12/22 08:02:52;;;;;;;10.45;5.63;;;;;;;;;;4978709;28;20031;-83
2022/12/22 08:05:18;;;;;;;7.50;3.97;;;;;;;;;;4981243;28;20027;-83
2022/12/22 08:07:43;;;;;;;8.95;4.97;;;;;;;;;;4980964;28;20081;-83
2022/12/22 08:10:09;;;;;;;12.23;5.68;;;;;;;;;;4980800;28;20035;-82
2022/12/22 08:12:35;;;;;;;10.20;5.65;;;;;;;;;;4978990;28;20019;-82
2022/12/22 08:15:00;;;;;;;11.05;5.43;;;;;;;;;;4981724;28;20031;-82
2022/12/22 08:17:26;;;;;;;8.95;4.97;;;;;;;;;;4981796;28;20042;-82
2022/12/22 08:19:52;;;;;;;11.48;5.57;;;;;;;;;;4983146;28;20082;-82
2022/12/22 08:22:17;;;;;;;9.38;5.00;;;;;;;;;;4981057;28;20031;-83
2022/12/22 08:24:43;;;;;;;10.02;5.18;;;;;;;;;;4980101;28;20019;-83
2022/12/22 08:27:14;;;;;;;9.07;5.00;;;;;;;;;;4980775;28;20519;-83
2022/12/22 08:29:46;;;;;;;7.65;4.70;;;;;;;;;;4982251;28;20547;-83
2022/12/22 08:32:12;;;;;;;8.75;5.18;;;;;;;;;;4980078;28;20034;-84
2022/12/22 08:34:41;;;;;;;10.50;5.72;;;;;;;;;;4979745;28;20038;-83
2022/12/22 08:37:10;;;;;;;9.88;5.63;;;;;;;;;;4979775;28;20038;-83
2022/12/22 08:39:38;;;;;;;8.73;5.00;;;;;;;;;;4979182;28;20022;-83
2022/12/22 08:42:06;;;;;;;8.38;4.88;;;;;;;;;;4981420;28;20071;-82
2022/12/22 08:44:31;;;;;;;10.23;4.90;;;;;;;;;;4981310;28;20041;-84
2022/12/22 08:46:58;;;;;;;9.18;4.85;;;;;;;;;;4979031;28;20023;-84
2022/12/22 08:49:24;;;;;;;8.75;4.75;;;;;;;;;;4979185;28;20065;-85
2022/12/22 08:51:50;;;;;;;8.18;4.72;;;;;;;;;;4977813;28;20038;-83
2022/12/22 08:54:16;;;;;;;7.68;4.18;;;;;;;;;;4981691;28;20034;-83
2022/12/22 08:56:42;;;;;;;7.72;4.75;;;;;;;;;;4982446;28;20031;-83
2022/12/22 08:59:08;;;;;;;7.90;4.30;;;;;;;;;;4983936;28;20082;-83
2022/12/22 09:01:38;;;;;;;8.32;4.82;;;;;;;;;;4983317;28;20031;-83
2022/12/22 09:04:05;;;;;;;7.25;4.55;;;;;;;;;;4983273;28;20492;-83
2022/12/22 09:06:31;;;;;;;6.90;4.00;;;;;;;;;;4984927;28;20070;-84
2022/12/22 09:08:59;;;;;;;7.97;4.47;;;;;;;;;;4983639;28;20031;-83
2022/12/22 09:11:26;;;;;;;6.30;3.97;;;;;;;;;;4982630;28;20035;-81
2022/12/22 09:13:55;;;;;;;6.10;4.07;;;;;;;;;;4980393;28;20022;-84
2022/12/22 09:16:22;;;;;;;9.93;4.82;;;;;;;;;;4982851;28;20097;-81
2022/12/22 09:18:48;;;;;;;8.77;4.30;;;;;;;;;;4980233;28;20027;-80
2022/12/22 09:21:14;;;;;;;9.98;4.30;;;;;;;;;;4980411;28;20353;-82
2022/12/22 09:23:39;;;;;;;7.80;4.50;;;;;;;;;;4979238;28;20030;-81
2022/12/22 09:26:08;;;;;;;7.32;4.53;;;;;;;;;;4979338;28;20027;-82
2022/12/22 09:28:34;;;;;;;7.13;3.88;;;;;;;;;;4980403;28;20090;-85
2022/12/22 09:31:00;;;;;;;7.88;4.63;;;;;;;;;;4978963;28;20030;-83
2022/12/22 09:33:25;;;;;;;8.90;4.80;;;;;;;;;;4979458;28;20502;-85
2022/12/22 09:35:51;;;;;;;7.97;4.70;;;;;;;;;;4980373;28;20174;-82
2022/12/22 09:38:16;;;;;;;8.45;4.63;;;;;;;;;;4980423;28;20033;-83
2022/12/22 09:40:41;;;;;;;8.07;5.00;;;;;;;;;;4978868;28;20035;-82
2022/12/22 09:43:13;;;;;;;10.30;5.25;;;;;;;;;;4979306;28;20552;-82
2022/12/22 09:45:38;;;;;;;9.55;5.20;;;;;;;;;;4980349;28;20388;-84
2022/12/22 09:48:03;;;;;;;6.43;4.30;;;;;;;;;;4980015;28;20101;-84
2022/12/22 09:50:31;;;;;;;6.00;3.83;;;;;;;;;;4982938;28;20476;-83
2022/12/22 09:53:02;;;;;;;8.57;4.57;;;;;;;;;;4984471;28;20014;-84
2022/12/22 09:55:40;;;;;;;6.85;3.97;;;;;;;;;;4983082;28;20034;-84
2022/12/22 09:58:27;;;;;;;6.35;3.42;;;;;;;;;;4983430;28;20035;-81
2022/12/22 10:01:07;;;;;;;10.90;3.83;;;;;;;;;;4983646;28;20062;-81
2022/12/22 10:04:08;;;;;;;7.38;3.90;;;;;;;;;;4983109;28;20026;-84
2022/12/22 10:07:00;;;;;;;4.63;3.03;;;;;;;;;;4955978;28;20125;-85
2022/12/22 10:09:31;;;;;;;5.68;3.40;;;;;;;;;;4987717;28;20027;-86
2022/12/22 10:11:59;;;;;;;5.47;3.55;;;;;;;;;;4983867;28;20026;-85
2022/12/22 10:14:36;;;;;;;5.43;3.15;;;;;;;;;;4984044;28;20118;-85
2022/12/22 10:17:32;;;;;;;5.80;3.55;;;;;;;;;;4982539;28;20026;-86
2022/12/22 10:20:19;;;;;;;5.97;3.10;;;;;;;;;;4981979;28;20070;-86
2022/12/22 10:22:45;;;;;;;7.05;3.58;;;;;;;;;;4980620;28;20096;-84
2022/12/22 10:25:25;;;;;;;5.73;3.77;;;;;;;;;;4982293;28;20023;-84
2022/12/22 10:27:51;;;;;;;5.45;3.50;;;;;;;;;;4983538;28;20340;-83
2022/12/22 10:30:23;;;;;;;5.63;3.30;;;;;;;;;;4982859;28;20058;-82
2022/12/22 10:33:05;;;;;;;8.05;3.60;;;;;;;;;;4984785;28;20090;-85
2022/12/22 10:35:41;;;;;;;6.70;3.38;;;;;;;;;;4984600;28;20027;-86
2022/12/22 10:38:25;;;;;;;8.20;3.80;;;;;;;;;;4979387;28;20399;-76
2022/12/22 10:40:54;;;;;;;8.77;3.70;;;;;;;;;;4976973;28;20027;-78
2022/12/22 10:43:24;;;;;;;4.07;3.13;;;;;;;;;;4981991;28;20041;-85
2022/12/22 10:45:51;;;;;;;5.03;3.20;;;;;;;;;;4982100;28;20025;-82
2022/12/22 10:48:26;;;;;;;5.82;3.40;;;;;;;;;;4980074;28;20034;-85
2022/12/22 10:50:52;;;;;;;7.55;3.42;;;;;;;;;;4981108;28;20030;-84
2022/12/22 10:53:17;;;;;;;6.85;3.38;;;;;;;;;;4981973;28;20015;-83
2022/12/22 10:55:43;;;;;;;7.13;3.67;;;;;;;;;;4981633;28;20114;-84
2022/12/22 10:58:08;;;;;;;5.95;3.58;;;;;;;;;;4984303;28;20022;-84
2022/12/22 11:00:33;;;;;;;7.27;4.20;;;;;;;;;;4982345;28;20086;-83
2022/12/22 11:03:00;;;;;;;5.80;3.38;;;;;;;;;;4981019;28;20030;-83
2022/12/22 11:05:26;;;;;;;4.88;2.85;;;;;;;;;;4982410;28;20030;-83
2022/12/22 11:07:52;;;;;;;5.00;3.40;;;;;;;;;;4982385;28;20124;-84
2022/12/22 11:10:40;;;;;;;6.28;3.28;;;;;;;;;;4981289;28;20155;-83
2022/12/22 11:13:41;;;;;;;7.15;3.70;;;;;;;;;;4983055;28;20115;-84
2022/12/22 11:16:15;;;;;;;9.13;3.85;;;;;;;;;;4980478;28;20027;-84
2022/12/22 11:19:24;;;;;;;6.68;3.15;;;;;;;;;;4981292;28;20038;-85
2022/12/22 11:22:01;;;;;;;5.38;2.75;;;;;;;;;;4984324;28;20022;-84
2022/12/22 11:24:39;;;;;;;4.00;2.35;;;;;;;;;;4983008;28;20095;-85
2022/12/22 11:27:30;;;;;;;3.95;2.63;;;;;;;;;;4983375;28;20027;-84
2022/12/22 11:30:04;;;;;;;4.60;2.55;;;;;;;;;;4981757;28;20031;-84
2022/12/22 11:32:47;;;;;;;4.68;2.58;;;;;;;;;;4980409;28;20023;-83
2022/12/22 11:35:38;;;;;;;4.47;2.58;;;;;;;;;;4981554;28;20027;-84
2022/12/22 11:38:26;;;;;;;4.80;2.42;;;;;;;;;;4981635;28;20035;-86
2022/12/22 11:41:01;;;;;;;5.30;2.38;;;;;;;;;;4981945;28;20034;-82
2022/12/22 11:43:43;;;;;;;4.43;2.70;;;;;;;;;;4981379;28;20377;-84
2022/12/22 11:46:28;;;;;;;5.38;2.60;;;;;;;;;;4979895;28;20030;-84
2022/12/22 11:49:25;;;;;;;5.38;2.80;;;;;;;;;;4980340;28;20496;-84
2022/12/22 11:52:09;;;;;;;3.30;2.17;;;;;;;;;;4981013;28;20053;-83
2022/12/22 11:55:04;;;;;;;3.65;2.10;;;;;;;;;;4981871;28;20026;-84
2022/12/22 11:57:45;;;;;;;4.05;2.50;;;;;;;;;;4981424;28;20027;-84
2022/12/22 12:00:15;;;;;;;4.10;2.60;;;;;;;;;;4982292;28;20050;-84
2022/12/22 12:03:24;;;;;;;3.30;2.22;;;;;;;;;;4980747;28;20027;-84
2022/12/22 12:05:59;;;;;;;4.53;2.25;;;;;;;;;;4982530;28;20038;-84
2022/12/22 12:08:55;;;;;;;3.47;2.13;;;;;;;;;;4982522;28;20035;-84
2022/12/22 12:11:37;;;;;;;3.13;1.90;;;;;;;;;;4981870;28;20022;-85
2022/12/22 12:14:26;;;;;;;4.32;2.30;;;;;;;;;;4980548;28;20065;-84
2022/12/22 12:17:15;;;;;;;3.70;1.98;;;;;;;;;;4981699;28;20501;-83
2022/12/22 12:19:49;;;;;;;2.97;1.80;;;;;;;;;;4980860;28;20033;-84
2022/12/22 12:22:33;;;;;;;4.10;2.13;;;;;;;;;;4982067;28;20038;-85
2022/12/22 12:25:00;;;;;;;2.75;1.70;;;;;;;;;;4981512;28;20070;-85
2022/12/22 12:27:54;;;;;;;3.10;2.00;;;;;;;;;;4981466;28;20034;-83
2022/12/22 12:30:31;;;;;;;3.17;1.85;;;;;;;;;;4984818;28;20476;-87
2022/12/22 12:32:59;;;;;;;7.95;3.10;;;;;;;;;;4995374;28;20043;-84
2022/12/22 12:35:55;;;;;;;3.80;2.25;;;;;;;;;;4999358;28;20117;-83
2022/12/22 12:38:51;;;;;;;2.95;2.03;;;;;;;;;;4990291;28;20473;-83
2022/12/22 12:41:16;;;;;;;6.35;3.75;;;;;;;;;;4981657;28;20026;-83
2022/12/22 12:43:43;;;;;;;6.97;3.93;;;;;;;;;;4978666;28;20077;-83
2022/12/22 12:46:42;;;;;;;17.20;8.75;;;;;;;;;;4978900;28;20130;-84
2022/12/22 12:49:32;;;;;;;7.25;3.95;;;;;;;;;;4978751;28;20023;-84
2022/12/22 12:51:57;;;;;;;7.32;3.58;;;;;;;;;;4980214;28;20034;-85
2022/12/22 12:54:29;;;;;;;12.85;7.00;;;;;;;;;;4980462;28;20110;-84
2022/12/22 12:57:06;;;;;;;7.47;4.10;;;;;;;;;;4981110;28;20023;-83
2022/12/22 12:59:40;;;;;;;4.60;2.40;;;;;;;;;;4981582;28;20074;-83
2022/12/22 13:02:27;;;;;;;3.70;2.38;;;;;;;;;;4981511;28;20095;-83
2022/12/22 13:05:11;;;;;;;4.47;2.30;;;;;;;;;;4981614;28;20090;-85
2022/12/22 13:08:16;;;;;;;3.78;1.98;;;;;;;;;;4981846;28;20026;-83
2022/12/22 13:11:03;;;;;;;4.00;2.08;;;;;;;;;;4981943;28;20054;-83
2022/12/22 13:13:28;;;;;;;4.45;2.33;;;;;;;;;;4981494;28;20117;-83
2022/12/22 13:15:59;;;;;;;3.70;1.90;;;;;;;;;;4982678;28;20085;-84
2022/12/22 13:18:24;;;;;;;1.02;0.75;;;;;;;;;;4981621;28;20257;-84
2022/12/22 13:21:14;;;;;;;0.77;0.57;;;;;;;;;;4983090;28;20061;-84
2022/12/22 13:24:02;;;;;;;1.42;0.80;;;;;;;;;;4972140;28;20042;-83
2022/12/22 13:26:40;;;;;;;1.17;0.55;;;;;;;;;;4982683;28;20385;-86
2022/12/22 13:29:15;;;;;;;2.88;0.60;;;;;;;;;;4980925;28;20033;-84
2022/12/22 13:31:46;;;;;;;0.43;0.30;;;;;;;;;;4982218;28;20019;-83
2022/12/22 13:34:42;;;;;;;1.30;0.63;;;;;;;;;;4981836;28;20038;-83
2022/12/22 13:37:18;;;;;;;2.63;0.70;;;;;;;;;;4982226;28;20023;-84
2022/12/22 13:40:05;;;;;;;1.73;0.60;;;;;;;;;;4981722;28;20034;-84
2022/12/22 13:42:34;;;;;;;1.25;0.77;;;;;;;;;;4980240;28;20031;-84
2022/12/22 13:45:00;;;;;;;2.80;0.80;;;;;;;;;;4981503;28;20114;-83
2022/12/22 13:47:26;;;;;;;2.65;0.65;;;;;;;;;;4981550;28;20054;-83
2022/12/22 13:49:51;;;;;;;1.10;0.50;;;;;;;;;;4980144;28;20543;-84
2022/12/22 13:52:18;;;;;;;2.08;0.70;;;;;;;;;;4983869;28;20018;-85
2022/12/22 13:54:44;;;;;;;2.20;0.43;;;;;;;;;;4982137;28;20035;-85
2022/12/22 13:57:19;;;;;;;1.77;0.50;;;;;;;;;;4981742;28;20030;-84
2022/12/22 13:59:48;;;;;;;0.73;0.55;;;;;;;;;;4982284;28;20034;-84
2022/12/22 14:02:18;;;;;;;0.68;0.50;;;;;;;;;;4981197;28;20034;-84
2022/12/22 14:05:07;;;;;;;1.10;0.65;;;;;;;;;;4982959;28;20113;-84
2022/12/22 14:07:33;;;;;;;1.83;0.70;;;;;;;;;;4982494;28;20031;-84
2022/12/22 14:09:58;;;;;;;1.20;0.80;;;;;;;;;;4981662;28;20476;-84
2022/12/22 14:12:30;;;;;;;2.58;1.00;;;;;;;;;;4982738;28;20073;-84
2022/12/22 14:14:57;;;;;;;2.08;0.80;;;;;;;;;;4982554;28;20113;-84
2022/12/22 14:17:34;;;;;;;1.13;0.70;;;;;;;;;;4982317;28;20037;-84
2022/12/22 14:20:10;;;;;;;0.80;0.55;;;;;;;;;;4979876;28;20026;-84
2022/12/22 14:22:41;;;;;;;2.60;0.70;;;;;;;;;;4979574;28;20031;-84
2022/12/22 14:25:14;;;;;;;2.17;0.80;;;;;;;;;;4982364;28;20019;-84
2022/12/22 14:27:47;;;;;;;1.87;0.70;;;;;;;;;;4981141;28;20050;-84
2022/12/22 14:30:26;;;;;;;1.20;0.82;;;;;;;;;;4981900;28;20303;-85
2022/12/22 14:32:53;;;;;;;2.20;0.85;;;;;;;;;;4980950;28;20026;-84
2022/12/22 14:35:18;;;;;;;1.85;1.00;;;;;;;;;;4979688;28;20078;-84
2022/12/22 14:37:48;;;;;;;2.20;1.00;;;;;;;;;;4980572;28;20030;-85
2022/12/22 14:40:31;;;;;;;1.45;0.80;;;;;;;;;;4980890;28;20077;-83
2022/12/22 14:42:58;;;;;;;2.17;0.80;;;;;;;;;;4981111;28;20023;-83
2022/12/22 14:45:24;;;;;;;1.67;0.93;;;;;;;;;;4981720;28;20034;-83
2022/12/22 14:47:50;;;;;;;3.22;0.90;;;;;;;;;;4980535;28;20030;-84
2022/12/22 14:50:18;;;;;;;1.55;0.80;;;;;;;;;;4980389;28;20158;-84
2022/12/22 14:52:53;;;;;;;1.30;0.82;;;;;;;;;;4977770;28;20169;-83
2022/12/22 14:55:26;;;;;;;1.15;0.77;;;;;;;;;;4979948;28;20105;-85
2022/12/22 14:57:55;;;;;;;1.85;1.00;;;;;;;;;;4978893;28;20026;-84
2022/12/22 15:00:20;;;;;;;1.08;0.60;;;;;;;;;;4980017;28;20030;-84
2022/12/22 15:02:52;;;;;;;1.23;0.70;;;;;;;;;;4979784;28;20372;-84
2022/12/22 15:05:30;;;;;;;2.30;0.80;;;;;;;;;;4978066;28;20030;-84
2022/12/22 15:07:57;;;;;;;2.38;0.70;;;;;;;;;;4978968;28;20058;-84
2022/12/22 15:10:24;;;;;;;2.47;1.00;;;;;;;;;;4980543;28;20030;-84
2022/12/22 15:12:55;;;;;;;3.00;1.00;;;;;;;;;;4979716;28;20058;-84
2022/12/22 15:15:21;;;;;;;1.30;0.80;;;;;;;;;;4979845;28;20018;-83
2022/12/22 15:17:51;;;;;;;1.00;0.63;;;;;;;;;;4979744;28;20026;-83
2022/12/22 15:20:22;;;;;;;1.23;0.77;;;;;;;;;;4980240;28;20034;-84
2022/12/22 15:22:48;;;;;;;1.05;0.73;;;;;;;;;;4980722;28;20030;-83
2022/12/22 15:25:17;;;;;;;1.80;0.77;;;;;;;;;;4980304;28;20034;-84
2022/12/22 15:27:43;;;;;;;0.68;0.60;;;;;;;;;;4980886;28;20473;-86
2022/12/22 15:30:10;;;;;;;7.22;0.77;;;;;;;;;;4981218;28;20038;-84
2022/12/22 15:32:35;;;;;;;1.45;0.47;;;;;;;;;;4980420;28;20058;-86
2022/12/22 15:35:02;;;;;;;1.15;0.60;;;;;;;;;;4979187;28;20033;-85
2022/12/22 15:37:27;;;;;;;0.45;0.35;;;;;;;;;;4979731;28;20018;-83
2022/12/22 15:39:53;;;;;;;2.08;0.68;;;;;;;;;;4977941;28;20519;-84
2022/12/22 15:42:18;;;;;;;1.63;0.70;;;;;;;;;;4978439;28;20026;-82
2022/12/22 15:44:43;;;;;;;0.50;0.40;;;;;;;;;;4977321;28;20143;-85
2022/12/22 15:47:11;;;;;;;0.67;0.53;;;;;;;;;;4978457;28;20030;-84
2022/12/22 15:49:37;;;;;;;1.15;0.60;;;;;;;;;;4977491;28;20268;-84
2022/12/22 15:52:04;;;;;;;4.95;1.35;;;;;;;;;;4977940;28;20050;-85
2022/12/22 15:54:32;;;;;;;1.45;0.77;;;;;;;;;;4978460;28;20077;-83
2022/12/22 15:56:57;;;;;;;2.92;0.88;;;;;;;;;;4978671;28;20027;-84
2022/12/22 15:59:24;;;;;;;2.03;0.80;;;;;;;;;;4979095;28;20030;-87
2022/12/22 16:01:50;;;;;;;3.42;0.93;;;;;;;;;;4977944;28;20050;-85
2022/12/22 16:04:16;;;;;;;1.17;0.70;;;;;;;;;;4978972;28;20031;-85
2022/12/22 16:06:41;;;;;;;5.95;0.90;;;;;;;;;;4979929;28;20260;-84
2022/12/22 16:09:15;;;;;;;0.73;0.70;;;;;;;;;;4979640;28;20118;-86
2022/12/22 16:11:41;;;;;;;1.67;0.80;;;;;;;;;;4981401;28;20105;-86
2022/12/22 16:14:11;;;;;;;3.20;0.90;;;;;;;;;;4980551;28;20051;-85
2022/12/22 16:16:36;;;;;;;1.50;0.80;;;;;;;;;;4981281;28;20027;-85
2022/12/22 16:19:02;;;;;;;1.13;0.90;;;;;;;;;;4982208;28;20090;-86
2022/12/22 16:21:31;;;;;;;1.50;1.00;;;;;;;;;;4982056;28;20433;-86
2022/12/22 16:23:57;;;;;;;2.20;1.10;;;;;;;;;;4982223;28;20058;-86
2022/12/22 16:26:22;;;;;;;1.35;0.90;;;;;;;;;;4980302;28;20027;-85
2022/12/22 16:28:48;;;;;;;1.37;0.87;;;;;;;;;;4981826;28;20085;-87
2022/12/22 16:31:19;;;;;;;2.17;0.85;;;;;;;;;;4982850;28;20245;-85
2022/12/22 16:33:47;;;;;;;0.88;0.75;;;;;;;;;;4981367;28;20023;-85
2022/12/22 16:36:15;;;;;;;0.70;0.70;;;;;;;;;;4982351;28;20026;-85
2022/12/22 16:38:40;;;;;;;7.05;1.45;;;;;;;;;;4981615;28;20019;-84
2022/12/22 16:41:17;;;;;;;2.90;1.13;;;;;;;;;;4979910;28;20033;-83
2022/12/22 16:43:42;;;;;;;2.20;1.23;;;;;;;;;;4980807;28;20030;-85
2022/12/22 16:46:13;;;;;;;1.30;1.02;;;;;;;;;;4981404;28;20027;-85
2022/12/22 16:48:45;;;;;;;1.80;1.25;;;;;;;;;;4980417;28;20027;-86
2022/12/22 16:51:17;;;;;;;1.20;1.05;;;;;;;;;;4981037;28;20057;-85
2022/12/22 16:53:42;;;;;;;3.20;1.50;;;;;;;;;;4980824;28;20023;-85
2022/12/22 16:56:13;;;;;;;2.38;1.42;;;;;;;;;;4981044;28;20107;-86
2022/12/22 16:58:38;;;;;;;4.20;1.80;;;;;;;;;;4980097;28;20065;-86
2022/12/22 17:01:04;;;;;;;3.40;2.20;;;;;;;;;;4980480;28;20031;-86
2022/12/22 17:03:30;;;;;;;3.60;2.20;;;;;;;;;;4979800;28;20027;-86
2022/12/22 17:05:58;;;;;;;3.80;2.17;;;;;;;;;;4980708;28;20070;-86
2022/12/22 17:08:30;;;;;;;4.32;2.92;;;;;;;;;;4980086;28;20027;-87
2022/12/22 17:10:57;;;;;;;3.47;2.58;;;;;;;;;;4980704;28;20109;-84
2022/12/22 17:13:23;;;;;;;5.57;3.22;;;;;;;;;;4980686;28;20207;-86
2022/12/22 17:15:48;;;;;;;4.78;3.45;;;;;;;;;;4982339;28;20030;-87
2022/12/22 17:18:16;;;;;;;7.70;3.92;;;;;;;;;;4984537;28;20019;-86
2022/12/22 17:20:42;;;;;;;7.43;4.55;;;;;;;;;;4984045;28;20519;-87
2022/12/22 17:23:32;;;;;;;6.55;4.35;;;;;;;;;;4984398;28;20027;-86
2022/12/22 17:25:58;;;;;;;6.45;4.20;;;;;;;;;;4984147;28;20385;-86
2022/12/22 17:28:24;;;;;;;6.68;4.57;;;;;;;;;;4983387;28;20050;-85
2022/12/22 17:30:49;;;;;;;8.18;5.45;;;;;;;;;;4981975;28;20089;-86
2022/12/22 17:33:15;;;;;;;7.72;5.35;;;;;;;;;;4984862;28;20440;-86
2022/12/22 17:35:43;;;;;;;7.55;5.53;;;;;;;;;;4986901;28;20037;-86
2022/12/22 17:38:16;;;;;;;9.90;6.10;;;;;;;;;;4986528;28;20384;-86
2022/12/22 17:40:43;;;;;;;9.20;5.45;;;;;;;;;;4985690;28;20033;-86
2022/12/22 17:43:12;;;;;;;11.98;6.05;;;;;;;;;;4987041;28;20042;-86
2022/12/22 17:45:37;;;;;;;11.07;7.40;;;;;;;;;;4986615;28;20455;-86
2022/12/22 17:48:03;;;;;;;10.07;6.85;;;;;;;;;;4986578;28;20085;-86
2022/12/22 17:50:28;;;;;;;10.90;7.00;;;;;;;;;;4985835;28;20058;-86
2022/12/22 17:52:54;;;;;;;11.95;6.57;;;;;;;;;;4984643;28;20022;-85
2022/12/22 17:55:22;;;;;;;12.88;7.70;;;;;;;;;;4986967;28;20073;-86
2022/12/22 17:57:48;;;;;;;11.05;6.88;;;;;;;;;;4985168;28;20491;-85
2022/12/22 18:00:31;;;;;;;11.93;6.90;;;;;;;;;;4986560;28;20066;-86
2022/12/22 18:02:57;;;;;;;10.93;6.95;;;;;;;;;;4985356;28;20027;-87
2022/12/22 18:05:37;;;;;;;11.00;6.75;;;;;;;;;;4984801;28;20507;-85
2022/12/22 18:08:03;;;;;;;11.73;7.18;;;;;;;;;;4986976;28;20417;-85
2022/12/22 18:10:36;;;;;;;14.30;8.38;;;;;;;;;;4987277;28;20041;-85
2022/12/22 18:13:03;;;;;;;13.07;7.60;;;;;;;;;;4985943;28;20038;-85
2022/12/22 18:15:30;;;;;;;14.57;8.15;;;;;;;;;;4986449;28;20105;-85
2022/12/22 18:17:56;;;;;;;15.93;7.60;;;;;;;;;;4986156;28;20031;-84
2022/12/22 18:20:24;;;;;;;11.68;7.10;;;;;;;;;;4985182;28;20037;-85
2022/12/22 18:22:54;;;;;;;10.65;6.68;;;;;;;;;;4986201;28;20054;-85
2022/12/22 18:25:22;;;;;;;8.55;6.07;;;;;;;;;;4985962;28;20504;-86
2022/12/22 18:27:47;;;;;;;10.70;6.60;;;;;;;;;;4985945;28;20022;-85
2022/12/22 18:30:14;;;;;;;10.73;6.25;;;;;;;;;;4984660;28;20046;-86